Data for 05/18/2006

Time Sea-Level Adjusted Pressure Absolute Pressure Temperature Relative Humidity Dew Point   
(mb) (inHg) (mb) (inHg) (C) (F) (%) (C) (F)
00:05 1019 30.09 848 25.04 17 62.6 40 3.4 38.2
00:10 1019 30.09 848 25.04 17 62.7 43 4.6 40.2
00:15 1019 30.09 848 25.04 17 62.5 41 3.6 38.6
00:20 1019 30.09 848 25.04 16.9 62.5 41 3.5 38.4
00:25 1019 30.09 848 25.04 16.7 62 46 5 41.1
00:30 1019 30.09 848 25.04 16.4 61.5 43 3.8 38.8
00:35 1019 30.09 848 25.04 16.3 61.3 43 3.9 39.1
00:40 1019 30.09 848 25.04 16.1 61 49 5.6 42.1
00:45 1019 30.09 848 25.04 16.1 61.1 44 3.9 39
00:50 1019 30.09 848 25.04 15.8 60.4 44 3.6 38.5
00:55 1019 30.09 848 25.04 15.7 60.3 44 3.5 38.3
01:00 1019 30.09 848 25.04 15.9 60.6 45 4.1 39.5
01:05 1019 30.09 848 25.04 16.7 62 39 2.9 37.2
01:10 1019 30.09 848 25.04 17 62.7 39 3.1 37.6
01:15 1019 30.09 848 25.04 17.1 62.7 39 3.2 37.8
01:20 1019 30.09 848 25.04 17 62.6 39 3.2 37.7
01:25 1019 30.09 848 25.04 16.3 61.3 42 3.5 38.3
01:30 1019 30.09 848 25.04 15.8 60.5 42 3.2 37.7
01:35 1019 30.09 848 25.04 15.7 60.2 48 4.8 40.6
01:40 1019 30.09 848 25.04 15.2 59.4 47 4 39.2
01:45 1019 30.09 848 25.04 15 58.9 48 4.1 39.3
01:50 1019 30.09 848 25.04 14.9 58.7 45 3.1 37.5
01:55 1019 30.09 848 25.04 15.1 59.2 44 3.1 37.6
02:00 1019 30.09 848 25.04 15.1 59.1 47 3.9 39
02:05 1019 30.09 848 25.04 15.2 59.3 45 3.3 37.9
02:10 1019 30.09 848 25.04 14.9 58.9 46 3.4 38.1
02:15 1019 30.09 848 25.04 14.8 58.6 47 3.5 38.4
02:20 1019 30.09 848 25.04 14.7 58.5 48 3.9 39
02:25 1019 30.09 848 25.04 14.7 58.5 47 3.7 38.7
02:30 1019 30.09 848 25.04 14.5 58 48 3.8 38.8
02:35 1019 30.09 848 25.04 14.3 57.7 48 3.4 38.2
02:40 1019 30.09 848 25.04 14 57.3 51 4 39.2
02:45 1019 30.09 848 25.04 13.1 55.6 55 4.3 39.8
02:50 1019 30.09 848 25.04 13 55.4 53 3.7 38.7
02:55 1019 30.09 848 25.04 13.2 55.8 52 3.7 38.6
03:00 1019 30.09 848 25.04 13.5 56.2 50 3.3 37.9
03:05 1019 30.09 848 25.04 13.6 56.5 51 3.7 38.6
03:10 1019 30.09 848 25.04 13.2 55.7 53 3.7 38.7
03:15 1019 30.09 848 25.04 13.5 56.2 50 3.4 38.1
03:20 1019 30.09 848 25.04 13.7 56.7 51 3.8 38.8
03:25 1019 30.09 848 25.04 13.4 56.2 52 3.8 38.8
03:30 1019 30.09 848 25.04 13.1 55.6 53 3.8 38.9
03:35 1019 30.09 848 25.04 13.1 55.5 53 3.8 38.9
03:40 1019 30.09 848 25.04 13.2 55.7 51 3.4 38.1
03:45 1019 30.09 848 25.04 13.5 56.2 50 3.4 38.1
03:50 1019 30.09 848 25.04 13.7 56.6 49 3.3 38
03:55 1019 30.09 848 25.04 13.8 56.8 49 3.3 37.9
04:00 1019 30.09 848 25.04 13.9 57 48 3.1 37.6
04:05 1019 30.09 848 25.04 14.2 57.5 47 3.1 37.5
04:10 1019 30.09 848 25.04 14.2 57.5 48 3.4 38.2
04:15 1019 30.09 848 25.04 14.1 57.4 47 3.2 37.7
04:20 1019 30.09 848 25.04 14 57.2 48 3.3 37.9
04:25 1019 30.09 848 25.04 13.8 56.9 49 3.4 38.1
04:30 1019 30.09 848 25.04 13.6 56.5 50 3.5 38.3
04:35 1019 30.09 848 25.04 13.5 56.2 51 3.6 38.5
04:40 1019 30.09 848 25.04 13.3 56 52 3.7 38.6
04:45 1019 30.09 848 25.04 13.1 55.6 52 3.5 38.4
04:50 1019 30.09 848 25.04 13.1 55.6 51 3.3 38
04:55 1019 30.09 848 25.04 13.5 56.3 49 3.2 37.7
05:00 1019 30.09 848 25.04 13.7 56.6 50 3.5 38.3
05:05 1019 30.09 848 25.04 13.4 56 51 3.6 38.4
05:10 1019 30.09 848 25.04 13.1 55.5 53 3.7 38.7
05:15 1019 30.09 848 25.04 13 55.4 51 3.3 38
05:20 1019 30.09 848 25.04 13.1 55.7 52 3.5 38.3
05:25 1019 30.09 848 25.04 13 55.4 53 3.6 38.5
05:30 1019 30.09 848 25.04 12.9 55.2 52 3.4 38.2
05:35 1019 30.09 848 25.04 13.1 55.6 51 3.3 38
05:40 1019 30.09 848 25.04 13.3 55.9 51 3.4 38.2
05:45 1019 30.09 848 25.04 13.3 55.9 51 3.4 38.2
05:50 1019 30.09 848 25.04 13.1 55.5 52 3.6 38.5
05:55 1019 30.09 848 25.04 12.9 55.2 53 3.7 38.6
06:00 1019 30.09 848 25.04 12.7 54.9 53 3.4 38.1
06:05 1019 30.09 848 25.04 12.7 54.9 53 3.5 38.4
06:10 1019 30.09 848 25.04 12.7 54.9 53 3.5 38.3
06:15 1019 30.09 848 25.04 12.8 55 53 3.6 38.4
06:20 1019 30.09 848 25.04 12.7 54.9 53 3.5 38.3
06:25 1019 30.09 848 25.04 12.8 55 53 3.4 38.2
06:30 1019 30.09 848 25.04 13 55.4 52 3.6 38.4
06:35 1019 30.09 849 25.07 13.1 55.6 52 3.6 38.6
06:40 1019 30.09 849 25.07 13.4 56.1 51 3.5 38.3
06:45 1019 30.09 848 25.04 13.6 56.5 51 3.7 38.6
06:50 1019 30.09 849 25.07 13.6 56.5 51 3.8 38.8
06:55 1019 30.09 849 25.07 13.7 56.6 50 3.7 38.6
07:00 1019 30.09 849 25.07 13.9 56.9 51 4.1 39.3
07:05 1019 30.09 849 25.07 13.8 56.9 51 3.9 39.1
07:10 1019 30.09 849 25.07 14.1 57.4 50 4 39.1
07:15 1019 30.09 849 25.07 14.3 57.8 50 4.1 39.4
07:20 1019 30.09 849 25.07 14.6 58.2 49 4 39.2
07:25 1019 30.09 849 25.07 14.7 58.5 49 4.2 39.6
07:30 1019 30.09 849 25.07 14.8 58.6 49 4.1 39.4
07:35 1019 30.09 849 25.07 15.1 59.1 48 4.2 39.6
07:40 1019 30.09 849 25.07 15.4 59.7 48 4.6 40.4
07:45 1019 30.09 849 25.07 15.7 60.3 49 5.1 41.2
07:50 1019 30.09 849 25.07 16 60.8 48 5.1 41.2
07:55 1019 30.09 849 25.07 15.9 60.6 48 5 41.1
08:00 1019 30.09 849 25.07 16.4 61.5 46 4.8 40.7
08:05 1019 30.09 849 25.07 17.2 62.9 43 4.6 40.3
08:10 1019 30.09 849 25.07 17.7 63.8 43 5 41
08:15 1019 30.09 849 25.07 17.9 64.2 42 4.9 40.9
08:20 1019 30.09 849 25.07 18.6 65.6 38 4.1 39.3
08:25 1020 30.12 849 25.07 18.9 66.1 37 4.1 39.4
08:30 1020 30.12 849 25.07 19.2 66.5 37 4.5 40
08:35 1020 30.12 849 25.07 19.3 66.7 38 4.8 40.6
08:40 1020 30.12 849 25.07 19.8 67.7 35 4.2 39.6
08:45 1020 30.12 849 25.07 20.3 68.6 34 4.1 39.3
08:50 1019 30.09 849 25.07 20.5 69 34 4.4 39.8
08:55 1019 30.09 849 25.07 20.8 69.4 35 4.8 40.7
09:00 1019 30.09 849 25.07 21 69.8 33 4.5 40
09:05 1019 30.09 849 25.07 21.3 70.3 33 4.4 40
09:10 1019 30.09 849 25.07 21 69.9 35 5.1 41.2
09:15 1019 30.09 849 25.07 21 69.8 34 4.7 40.5
09:20 1019 30.09 849 25.07 21.8 71.2 31 4 39.2
09:25 1019 30.09 849 25.07 22.1 71.9 30 3.9 39.1
09:30 1019 30.09 849 25.07 22.2 71.9 30 4 39.2
09:35 1019 30.09 849 25.07 22.4 72.2 29 3.6 38.6
09:40 1019 30.09 849 25.07 22 71.5 29 3.3 37.9
09:45 1019 30.09 849 25.07 22.5 72.5 28 3.4 38.1
09:50 1019 30.09 849 25.07 21.8 71.2 32 4.5 40.1
09:55 1019 30.09 848 25.04 21.2 70.1 31 3.5 38.2
10:00 1019 30.09 848 25.04 21.4 70.6 29 3.1 37.5
10:05 1019 30.09 848 25.04 22.1 71.7 30 3.8 38.9
10:10 1019 30.09 848 25.04 21.8 71.2 31 4.2 39.5
10:15 1019 30.09 848 25.04 22.3 72.2 30 4.4 39.8
10:20 1019 30.09 848 25.04 22.4 72.2 31 4.7 40.5
10:25 1019 30.09 848 25.04 23 73.5 30 4.5 40.1
10:30 1019 30.09 848 25.04 23.9 75 27 4 39.1
10:35 1019 30.09 848 25.04 24.7 76.5 26 4.3 39.7
10:40 1019 30.09 848 25.04 25.1 77.1 26 4.3 39.7
10:45 1019 30.09 848 25.04 25.2 77.4 22 2.4 36.4
10:50 1019 30.09 848 25.04 24.1 75.5 25 2.9 37.3
10:55 1019 30.09 848 25.04 24.2 75.6 25 3 37.3
11:00 1019 30.09 848 25.04 25.1 77.1 22 2 35.7
11:05 1019 30.09 848 25.04 25.6 78 23 3.3 38
11:10 1019 30.09 848 25.04 25.6 78.1 23 3 37.4
11:15 1019 30.09 848 25.04 25.4 77.8 23 2.9 37.1
11:20 1019 30.09 848 25.04 26 78.7 22 2.8 37
11:25 1019 30.09 848 25.04 25.6 78.1 21 2.2 36
11:30 1019 30.09 848 25.04 26.3 79.3 20 1.7 35.1
11:35 1019 30.09 848 25.04 27 80.7 19 1.7 35.1
11:40 1019 30.09 848 25.04 26.7 80.1 19 1.8 35.3
11:45 1019 30.09 848 25.04 26.5 79.6 19 0.9 33.7
11:50 1019 30.09 848 25.04 26.8 80.2 20 2 35.6
11:55 1019 30.09 848 25.04 26.8 80.2 19 1.3 34.3
12:00 1019 30.09 848 25.04 26.4 79.5 19 0.9 33.5
12:05 1019 30.09 848 25.04 27.2 80.9 16 -0.2 31.6
12:10 1019 30.09 848 25.04 27.5 81.5 16 -0 32
12:15 1019 30.09 848 25.04 27.3 81.2 15 -0.9 30.3
12:20 1019 30.09 848 25.04 27.4 81.3 16 -0.3 31.4
12:25 1019 30.09 848 25.04 27.5 81.6 15 -0.7 30.7
12:30 1019 30.09 848 25.04 28.5 83.2 15 -0 31.9
12:35 1018 30.06 848 25.04 28.4 83.1 16 0.4 32.8
12:40 1018 30.06 848 25.04 28.2 82.7 16 0 32
12:45 1018 30.06 848 25.04 28.7 83.7 15 -0 31.9
12:50 1018 30.06 848 25.04 28.5 83.3 15 -0.5 31.2
12:55 1018 30.06 848 25.04 29 84.1 15 0.3 32.5
13:00 1018 30.06 847 25.01 28.8 83.9 15 -0.1 31.7
13:05 1018 30.06 847 25.01 28.7 83.6 14 -1.1 30
13:10 1018 30.06 847 25.01 28.5 83.3 14 -1.6 29.2
13:15 1018 30.06 847 25.01 28.2 82.8 14 -1.1 30
13:20 1018 30.06 847 25.01 28 82.4 15 -0.5 31
13:25 1018 30.06 847 25.01 28.2 82.7 15 -0.3 31.4
13:30 1018 30.06 847 25.01 28.3 83 15 -0.1 31.8
13:35 1018 30.06 847 25.01 28.1 82.5 16 -0.2 31.6
13:40 1018 30.06 847 25.01 28.2 82.7 16 0.3 32.6
13:45 1018 30.06 847 25.01 27.4 81.3 16 -0.3 31.5
13:50 1018 30.06 847 25.01 27.4 81.4 16 -0.3 31.4
13:55 1018 30.06 847 25.01 28 82.3 17 0.6 33.1
14:00 1018 30.06 847 25.01 28.7 83.6 16 1.1 34
14:05 1018 30.06 847 25.01 28.5 83.2 17 1.6 34.9
14:10 1018 30.06 847 25.01 28.7 83.6 17 1.4 34.5
14:15 1018 30.06 847 25.01 28.6 83.6 16 0.5 32.9
14:20 1018 30.06 847 25.01 28.6 83.5 16 0.5 32.9
14:25 1018 30.06 847 25.01 28.6 83.6 16 0.8 33.4
14:30 1017 30.03 847 25.01 28.8 83.8 18 2.2 36
14:35 1017 30.03 847 25.01 28.5 83.2 18 1.8 35.3
14:40 1017 30.03 847 25.01 28.7 83.6 16 1.1 34
14:45 1017 30.03 847 25.01 29.2 84.6 16 1.5 34.8
14:50 1017 30.03 846 24.98 29.4 84.9 16 1.2 34.1
14:55 1017 30.03 846 24.98 29.1 84.4 16 0.8 33.5
15:00 1017 30.03 846 24.98 29.1 84.4 16 1.2 34.1
15:05 1017 30.03 846 24.98 29.4 84.9 15 0.8 33.5
15:10 1017 30.03 846 24.98 29.8 85.7 15 1 33.7
15:15 1017 30.03 846 24.98 29.8 85.7 15 0.9 33.7
15:20 1017 30.03 846 24.98 29.6 85.3 16 1.7 35
15:25 1017 30.03 846 24.98 29.3 84.8 16 1.1 34
15:30 1017 30.03 846 24.98 29.1 84.4 16 0.7 33.3
15:35 1017 30.03 846 24.98 29.5 85.2 16 1.1 33.9
15:40 1017 30.03 846 24.98 29.8 85.6 16 1.7 35.1
15:45 1017 30.03 846 24.98 29.4 84.8 16 1.2 34.1
15:50 1017 30.03 846 24.98 29.3 84.7 16 1.3 34.4
15:55 1016 30 846 24.98 29.5 85.1 16 1 33.9
16:00 1016 30 845 24.95 29.7 85.5 16 1.2 34.2
16:05 1016 30 845 24.95 30.1 86.2 15 1.3 34.3
16:10 1016 30 845 24.95 30 85.9 15 0.9 33.7
16:15 1016 30 845 24.95 29.9 85.7 15 1.2 34.1
16:20 1016 30 845 24.95 29.7 85.4 15 0.9 33.7
16:25 1016 30 845 24.95 29.3 84.8 16 1.2 34.1
16:30 1016 30 845 24.95 29.5 85 16 0.9 33.7
16:35 1016 30 845 24.95 29.8 85.6 15 0.8 33.4
16:40 1016 30 845 24.95 29.4 85 16 1.4 34.6
16:45 1016 30 845 24.95 29.3 84.7 15 0.7 33.3
16:50 1016 30 845 24.95 29.4 85 16 1 33.8
16:55 1016 30 845 24.95 29.6 85.3 15 0.9 33.6
17:00 1016 30 845 24.95 29.2 84.5 16 1 33.8
17:05 1016 30 845 24.95 29.7 85.5 15 1.1 34
17:10 1016 30 845 24.95 29.2 84.6 16 1.1 33.9
17:15 1016 30 845 24.95 28.8 83.9 16 0.6 33.1
17:20 1016 30 845 24.95 29 84.2 15 0.5 32.9
17:25 1016 30 845 24.95 30 85.9 15 1.1 33.9
17:30 1016 30 845 24.95 29.1 84.4 16 1.1 34
17:35 1016 30 845 24.95 28.8 83.9 17 1.3 34.4
17:40 1015 29.97 845 24.95 28.6 83.5 17 1.2 34.2
17:45 1015 29.97 845 24.95 28.7 83.7 16 0.8 33.5
17:50 1015 29.97 845 24.95 28.8 83.8 17 2 35.6
17:55 1015 29.97 845 24.95 28.5 83.3 18 2 35.6
18:00 1015 29.97 845 24.95 27.7 81.8 18 1.7 35
18:05 1015 29.97 845 24.95 27.3 81.1 18 1.6 34.8
18:10 1015 29.97 844 24.92 27.7 81.8 18 1.6 34.9
18:15 1015 29.97 844 24.92 27.4 81.4 18 1.6 34.9
18:20 1015 29.97 844 24.92 27.7 81.9 19 1.9 35.5
18:25 1015 29.97 844 24.92 27.9 82.3 18 1.5 34.8
18:30 1015 29.97 844 24.92 27.6 81.8 18 1.4 34.4
18:35 1015 29.97 844 24.92 27.4 81.3 18 1.6 34.9
18:40 1015 29.97 844 24.92 27.4 81.2 19 1.9 35.4
18:45 1015 29.97 844 24.92 27.2 81 19 2.1 35.8
18:50 1015 29.97 844 24.92 26.9 80.3 20 2 35.5
18:55 1015 29.97 844 24.92 26.7 80 21 2.5 36.5
19:00 1015 29.97 844 24.92 26.6 79.9 22 3.4 38.1
19:05 1015 29.97 845 24.95 25.8 78.4 25 4.6 40.3
19:10 1015 29.97 845 24.95 25 77.1 25 3.9 39
19:15 1016 30 845 24.95 25.1 77.2 25 3.9 38.9
19:20 1016 30 845 24.95 25.1 77.1 26 4.3 39.7
19:25 1016 30 845 24.95 24.8 76.6 27 5 41
19:30 1016 30 846 24.98 24.1 75.4 30 5.5 41.8
19:35 1016 30 846 24.98 23 73.5 30 5 40.9
19:40 1016 30 846 24.98 22.6 72.7 35 6.7 44.1
19:45 1016 30 846 24.98 20.8 69.4 45 8.5 47.4
19:50 1016 30 846 24.98 19.9 67.8 48 8.7 47.6
19:55 1016 30 845 24.95 19.4 67 51 9.2 48.5
20:00 1016 30 846 24.98 19.1 66.3 49 8.3 47
20:05 1016 30 846 24.98 19.4 66.9 50 8.7 47.7
20:10 1016 30 846 24.98 19.4 67 48 8.2 46.7
20:15 1016 30 846 24.98 19.7 67.5 43 7.1 44.7
20:20 1016 30 845 24.95 20.5 68.9 38 6 42.7
20:25 1016 30 845 24.95 20.9 69.7 42 7.5 45.6
20:30 1016 30 845 24.95 20.1 68.2 48 8.9 48
20:35 1016 30 846 24.98 19.2 66.5 51 8.9 48.1
20:40 1016 30 846 24.98 18.8 65.8 53 9.2 48.6
20:45 1016 30 845 24.95 18.9 66.1 50 8.4 47.1
20:50 1016 30 845 24.95 19 66.2 48 7.8 46.1
20:55 1016 30 845 24.95 19.3 66.7 46 7.5 45.5
21:00 1016 30 845 24.95 19.3 66.8 46 7.7 45.8
21:05 1016 30 845 24.95 19.3 66.7 49 8.5 47.3
21:10 1016 30 846 24.98 19.1 66.4 47 7.5 45.6
21:15 1016 30 846 24.98 19.6 67.2 43 6.8 44.2
21:20 1016 30 846 24.98 19.6 67.2 45 7.4 45.3
21:25 1017 30.03 846 24.98 19.4 67 45 7.2 45
21:30 1017 30.03 846 24.98 19.4 66.9 45 7.3 45.2
21:35 1017 30.03 846 24.98 19.6 67.2 41 6.2 43.2
21:40 1017 30.03 846 24.98 19.9 67.8 41 6.4 43.5
21:45 1017 30.03 846 24.98 20.2 68.3 36 4.9 40.9
21:50 1017 30.03 846 24.98 20.6 69 37 5.6 42
21:55 1017 30.03 846 24.98 20.7 69.3 37 5.7 42.2
22:00 1017 30.03 846 24.98 20.6 69.1 38 5.9 42.6
22:05 1017 30.03 846 24.98 20.5 68.8 39 6.2 43.2
22:10 1018 30.06 847 25.01 20.2 68.3 44 7.7 45.9
22:15 1018 30.06 847 25.01 19.5 67.1 44 7.1 44.7
22:20 1017 30.03 847 25.01 19.5 67.1 46 7.6 45.6
22:25 1017 30.03 847 25.01 19.5 67.1 43 6.9 44.4
22:30 1017 30.03 847 25.01 19.4 66.9 46 7.7 45.8
22:35 1017 30.03 846 24.98 19.3 66.7 46 7.5 45.4
22:40 1017 30.03 846 24.98 19.1 66.5 47 7.6 45.6
22:45 1017 30.03 846 24.98 19.1 66.4 45 7 44.5
22:50 1017 30.03 846 24.98 19.4 66.9 42 6.4 43.5
22:55 1017 30.03 846 24.98 19.6 67.3 42 6.6 43.8
23:00 1017 30.03 846 24.98 19.6 67.3 42 6.5 43.7
23:05 1017 30.03 846 24.98 19.5 67 42 6.5 43.8
23:10 1017 30.03 846 24.98 19.5 67 43 6.6 44
23:15 1017 30.03 847 25.01 19.3 66.8 45 7.3 45.1
23:20 1017 30.03 846 24.98 19 66.3 46 7.1 44.8
23:25 1017 30.03 846 24.98 18.9 66 48 7.7 45.9
23:30 1017 30.03 846 24.98 18.6 65.5 54 9.3 48.7
23:35 1017 30.03 846 24.98 18.6 65.4 48 7.5 45.5
23:40 1017 30.03 846 24.98 18.4 65.1 51 8.1 46.7
23:45 1017 30.03 846 24.98 18.2 64.7 50 7.8 46.1
23:50 1017 30.03 846 24.98 18.4 65.1 47 7.1 44.8
23:55 1017 30.03 846 24.98 18.5 65.4 47 7.2 45
24:00 1017 30.03 846 24.98 18.7 65.6 47 7.1 44.8